sensor_id;sensor_type;location;lat;lon;timestamp;P1;durP1;ratioP1;P2;durP2;ratioP2
41861;SDS011;27537;57.134;-2.136;2023-04-06T00:00:36;21.30;;;9.75;;
41861;SDS011;27537;57.134;-2.136;2023-04-06T00:03:03;16.15;;;8.30;;
41861;SDS011;27537;57.134;-2.136;2023-04-06T00:05:30;17.58;;;8.30;;
41861;SDS011;27537;57.134;-2.136;2023-04-06T00:07:57;18.92;;;9.50;;
41861;SDS011;27537;57.134;-2.136;2023-04-06T00:10:24;18.02;;;9.68;;
41861;SDS011;27537;57.134;-2.136;2023-04-06T00:12:51;17.17;;;8.88;;
41861;SDS011;27537;57.134;-2.136;2023-04-06T00:15:19;18.60;;;9.68;;
41861;SDS011;27537;57.134;-2.136;2023-04-06T00:17:46;17.73;;;9.48;;
41861;SDS011;27537;57.134;-2.136;2023-04-06T00:20:13;17.85;;;9.20;;
41861;SDS011;27537;57.134;-2.136;2023-04-06T00:22:40;17.02;;;8.82;;
41861;SDS011;27537;57.134;-2.136;2023-04-06T00:25:06;18.73;;;9.15;;
41861;SDS011;27537;57.134;-2.136;2023-04-06T00:27:33;17.30;;;8.40;;
41861;SDS011;27537;57.134;-2.136;2023-04-06T00:30:00;17.25;;;9.13;;
41861;SDS011;27537;57.134;-2.136;2023-04-06T00:32:28;17.27;;;9.02;;
41861;SDS011;27537;57.134;-2.136;2023-04-06T00:34:55;20.02;;;9.88;;
41861;SDS011;27537;57.134;-2.136;2023-04-06T00:37:21;19.58;;;9.55;;
41861;SDS011;27537;57.134;-2.136;2023-04-06T00:39:48;19.27;;;10.27;;
41861;SDS011;27537;57.134;-2.136;2023-04-06T00:42:15;17.80;;;9.45;;
41861;SDS011;27537;57.134;-2.136;2023-04-06T00:44:41;16.00;;;8.20;;
41861;SDS011;27537;57.134;-2.136;2023-04-06T00:47:08;18.05;;;8.60;;
41861;SDS011;27537;57.134;-2.136;2023-04-06T00:49:36;21.48;;;10.77;;
41861;SDS011;27537;57.134;-2.136;2023-04-06T00:52:02;21.85;;;11.38;;
41861;SDS011;27537;57.134;-2.136;2023-04-06T00:54:29;19.83;;;11.57;;
41861;SDS011;27537;57.134;-2.136;2023-04-06T00:56:57;21.45;;;9.60;;
41861;SDS011;27537;57.134;-2.136;2023-04-06T00:59:24;22.48;;;9.95;;
41861;SDS011;27537;57.134;-2.136;2023-04-06T01:01:51;20.50;;;9.90;;
41861;SDS011;27537;57.134;-2.136;2023-04-06T01:04:18;24.10;;;11.57;;
41861;SDS011;27537;57.134;-2.136;2023-04-06T01:06:45;15.38;;;8.10;;
41861;SDS011;27537;57.134;-2.136;2023-04-06T01:09:11;17.92;;;9.80;;
41861;SDS011;27537;57.134;-2.136;2023-04-06T01:11:38;17.35;;;9.15;;
41861;SDS011;27537;57.134;-2.136;2023-04-06T01:14:05;20.17;;;9.75;;
41861;SDS011;27537;57.134;-2.136;2023-04-06T01:16:32;23.55;;;11.52;;
41861;SDS011;27537;57.134;-2.136;2023-04-06T01:19:00;18.70;;;8.43;;
41861;SDS011;27537;57.134;-2.136;2023-04-06T01:21:26;15.80;;;8.77;;
41861;SDS011;27537;57.134;-2.136;2023-04-06T01:23:53;21.10;;;11.40;;
41861;SDS011;27537;57.134;-2.136;2023-04-06T01:26:20;18.40;;;10.60;;
41861;SDS011;27537;57.134;-2.136;2023-04-06T01:28:47;21.77;;;11.25;;
41861;SDS011;27537;57.134;-2.136;2023-04-06T01:31:13;22.58;;;12.07;;
41861;SDS011;27537;57.134;-2.136;2023-04-06T01:33:40;18.13;;;9.82;;
41861;SDS011;27537;57.134;-2.136;2023-04-06T01:36:07;19.23;;;9.75;;
41861;SDS011;27537;57.134;-2.136;2023-04-06T01:38:34;19.42;;;9.60;;
41861;SDS011;27537;57.134;-2.136;2023-04-06T01:41:01;19.38;;;9.68;;
41861;SDS011;27537;57.134;-2.136;2023-04-06T01:43:28;20.70;;;11.20;;
41861;SDS011;27537;57.134;-2.136;2023-04-06T01:45:54;19.00;;;9.10;;
41861;SDS011;27537;57.134;-2.136;2023-04-06T01:48:21;21.95;;;10.65;;
41861;SDS011;27537;57.134;-2.136;2023-04-06T01:50:48;18.00;;;9.07;;
41861;SDS011;27537;57.134;-2.136;2023-04-06T01:53:15;16.70;;;9.20;;
41861;SDS011;27537;57.134;-2.136;2023-04-06T01:55:42;20.15;;;10.27;;
41861;SDS011;27537;57.134;-2.136;2023-04-06T01:58:09;20.58;;;10.10;;
41861;SDS011;27537;57.134;-2.136;2023-04-06T02:00:35;19.13;;;9.35;;
41861;SDS011;27537;57.134;-2.136;2023-04-06T02:03:02;19.63;;;10.57;;
41861;SDS011;27537;57.134;-2.136;2023-04-06T02:05:30;19.45;;;10.23;;
41861;SDS011;27537;57.134;-2.136;2023-04-06T02:07:59;18.92;;;9.27;;
41861;SDS011;27537;57.134;-2.136;2023-04-06T02:10:26;22.35;;;9.05;;
41861;SDS011;27537;57.134;-2.136;2023-04-06T02:12:52;25.40;;;12.70;;
41861;SDS011;27537;57.134;-2.136;2023-04-06T02:15:19;27.52;;;12.48;;
41861;SDS011;27537;57.134;-2.136;2023-04-06T02:17:46;24.33;;;10.63;;
41861;SDS011;27537;57.134;-2.136;2023-04-06T02:20:13;27.05;;;10.93;;
41861;SDS011;27537;57.134;-2.136;2023-04-06T02:22:39;25.23;;;9.98;;
41861;SDS011;27537;57.134;-2.136;2023-04-06T02:25:06;28.05;;;12.38;;
41861;SDS011;27537;57.134;-2.136;2023-04-06T02:27:34;22.75;;;8.50;;
41861;SDS011;27537;57.134;-2.136;2023-04-06T02:30:04;23.45;;;10.25;;
41861;SDS011;27537;57.134;-2.136;2023-04-06T02:32:32;27.13;;;10.68;;
41861;SDS011;27537;57.134;-2.136;2023-04-06T02:34:59;24.60;;;11.20;;
41861;SDS011;27537;57.134;-2.136;2023-04-06T02:37:26;19.95;;;9.45;;
41861;SDS011;27537;57.134;-2.136;2023-04-06T02:39:53;21.48;;;11.10;;
41861;SDS011;27537;57.134;-2.136;2023-04-06T02:42:20;23.70;;;12.10;;
41861;SDS011;27537;57.134;-2.136;2023-04-06T02:44:47;20.17;;;9.45;;
41861;SDS011;27537;57.134;-2.136;2023-04-06T02:47:14;22.17;;;10.30;;
41861;SDS011;27537;57.134;-2.136;2023-04-06T02:49:41;19.10;;;9.82;;
41861;SDS011;27537;57.134;-2.136;2023-04-06T02:52:08;18.58;;;8.25;;
41861;SDS011;27537;57.134;-2.136;2023-04-06T02:54:34;19.88;;;9.45;;
41861;SDS011;27537;57.134;-2.136;2023-04-06T02:57:01;21.80;;;10.18;;
41861;SDS011;27537;57.134;-2.136;2023-04-06T02:59:30;20.15;;;10.00;;
41861;SDS011;27537;57.134;-2.136;2023-04-06T03:01:57;20.75;;;10.68;;
41861;SDS011;27537;57.134;-2.136;2023-04-06T03:04:24;18.00;;;9.30;;
41861;SDS011;27537;57.134;-2.136;2023-04-06T03:06:51;18.02;;;8.40;;
41861;SDS011;27537;57.134;-2.136;2023-04-06T03:09:19;19.48;;;9.27;;
41861;SDS011;27537;57.134;-2.136;2023-04-06T03:11:46;20.23;;;9.48;;
41861;SDS011;27537;57.134;-2.136;2023-04-06T03:14:13;19.88;;;9.55;;
41861;SDS011;27537;57.134;-2.136;2023-04-06T03:16:39;15.43;;;6.95;;
41861;SDS011;27537;57.134;-2.136;2023-04-06T03:19:06;16.50;;;7.60;;
41861;SDS011;27537;57.134;-2.136;2023-04-06T03:21:33;12.93;;;5.95;;
41861;SDS011;27537;57.134;-2.136;2023-04-06T03:24:00;19.10;;;8.75;;
41861;SDS011;27537;57.134;-2.136;2023-04-06T03:26:26;15.18;;;7.60;;
41861;SDS011;27537;57.134;-2.136;2023-04-06T03:28:53;15.32;;;7.05;;
41861;SDS011;27537;57.134;-2.136;2023-04-06T03:31:20;14.95;;;7.57;;
41861;SDS011;27537;57.134;-2.136;2023-04-06T03:33:47;21.50;;;10.45;;
41861;SDS011;27537;57.134;-2.136;2023-04-06T03:36:13;20.10;;;9.75;;
41861;SDS011;27537;57.134;-2.136;2023-04-06T03:38:40;19.27;;;9.80;;
41861;SDS011;27537;57.134;-2.136;2023-04-06T03:41:07;18.73;;;9.20;;
41861;SDS011;27537;57.134;-2.136;2023-04-06T03:43:34;21.13;;;9.73;;
41861;SDS011;27537;57.134;-2.136;2023-04-06T03:46:00;17.20;;;7.70;;
41861;SDS011;27537;57.134;-2.136;2023-04-06T03:48:27;14.85;;;6.55;;
41861;SDS011;27537;57.134;-2.136;2023-04-06T03:50:54;18.52;;;9.35;;
41861;SDS011;27537;57.134;-2.136;2023-04-06T03:53:21;18.55;;;8.85;;
41861;SDS011;27537;57.134;-2.136;2023-04-06T03:55:48;20.20;;;8.68;;
41861;SDS011;27537;57.134;-2.136;2023-04-06T03:58:14;16.92;;;7.63;;
41861;SDS011;27537;57.134;-2.136;2023-04-06T04:00:41;14.63;;;7.05;;
41861;SDS011;27537;57.134;-2.136;2023-04-06T04:03:08;13.73;;;6.55;;
41861;SDS011;27537;57.134;-2.136;2023-04-06T04:05:35;16.85;;;8.25;;
41861;SDS011;27537;57.134;-2.136;2023-04-06T04:08:02;17.30;;;8.55;;
41861;SDS011;27537;57.134;-2.136;2023-04-06T04:10:29;16.35;;;7.70;;
41861;SDS011;27537;57.134;-2.136;2023-04-06T04:12:55;15.30;;;7.53;;
41861;SDS011;27537;57.134;-2.136;2023-04-06T04:15:22;18.33;;;9.25;;
41861;SDS011;27537;57.134;-2.136;2023-04-06T04:17:49;17.95;;;9.85;;
41861;SDS011;27537;57.134;-2.136;2023-04-06T04:20:17;18.48;;;8.73;;
41861;SDS011;27537;57.134;-2.136;2023-04-06T04:22:43;18.27;;;9.02;;
41861;SDS011;27537;57.134;-2.136;2023-04-06T04:25:10;18.00;;;9.30;;
41861;SDS011;27537;57.134;-2.136;2023-04-06T04:27:37;16.33;;;8.02;;
41861;SDS011;27537;57.134;-2.136;2023-04-06T04:30:04;16.02;;;8.48;;
41861;SDS011;27537;57.134;-2.136;2023-04-06T04:32:32;17.38;;;7.82;;
41861;SDS011;27537;57.134;-2.136;2023-04-06T04:34:58;19.27;;;9.75;;
41861;SDS011;27537;57.134;-2.136;2023-04-06T04:37:25;16.40;;;7.65;;
41861;SDS011;27537;57.134;-2.136;2023-04-06T04:39:52;21.92;;;10.45;;
41861;SDS011;27537;57.134;-2.136;2023-04-06T04:42:19;14.07;;;7.03;;
41861;SDS011;27537;57.134;-2.136;2023-04-06T04:44:46;21.48;;;9.65;;
41861;SDS011;27537;57.134;-2.136;2023-04-06T04:47:12;19.42;;;9.63;;
41861;SDS011;27537;57.134;-2.136;2023-04-06T04:49:39;19.00;;;9.80;;
41861;SDS011;27537;57.134;-2.136;2023-04-06T04:52:06;18.52;;;9.95;;
41861;SDS011;27537;57.134;-2.136;2023-04-06T04:54:32;18.55;;;9.20;;
41861;SDS011;27537;57.134;-2.136;2023-04-06T04:56:59;24.58;;;12.45;;
41861;SDS011;27537;57.134;-2.136;2023-04-06T04:59:26;17.40;;;7.93;;
41861;SDS011;27537;57.134;-2.136;2023-04-06T05:01:53;19.13;;;8.70;;
41861;SDS011;27537;57.134;-2.136;2023-04-06T05:04:21;19.23;;;9.73;;
41861;SDS011;27537;57.134;-2.136;2023-04-06T05:06:49;18.88;;;9.88;;
41861;SDS011;27537;57.134;-2.136;2023-04-06T05:09:15;19.25;;;9.50;;
41861;SDS011;27537;57.134;-2.136;2023-04-06T05:11:43;18.50;;;8.38;;
41861;SDS011;27537;57.134;-2.136;2023-04-06T05:14:10;19.73;;;9.23;;
41861;SDS011;27537;57.134;-2.136;2023-04-06T05:16:37;16.20;;;6.80;;
41861;SDS011;27537;57.134;-2.136;2023-04-06T05:19:03;11.80;;;5.22;;
41861;SDS011;27537;57.134;-2.136;2023-04-06T05:21:30;20.88;;;8.52;;
41861;SDS011;27537;57.134;-2.136;2023-04-06T05:23:57;19.92;;;8.55;;
41861;SDS011;27537;57.134;-2.136;2023-04-06T05:26:24;17.33;;;7.97;;
41861;SDS011;27537;57.134;-2.136;2023-04-06T05:28:51;14.30;;;6.18;;
41861;SDS011;27537;57.134;-2.136;2023-04-06T05:31:18;16.95;;;6.95;;
41861;SDS011;27537;57.134;-2.136;2023-04-06T05:33:45;14.65;;;7.07;;
41861;SDS011;27537;57.134;-2.136;2023-04-06T05:36:11;15.82;;;7.15;;
41861;SDS011;27537;57.134;-2.136;2023-04-06T05:38:40;14.40;;;6.85;;
41861;SDS011;27537;57.134;-2.136;2023-04-06T05:41:07;13.32;;;5.95;;
41861;SDS011;27537;57.134;-2.136;2023-04-06T05:43:33;15.65;;;8.13;;
41861;SDS011;27537;57.134;-2.136;2023-04-06T05:46:00;13.65;;;7.18;;
41861;SDS011;27537;57.134;-2.136;2023-04-06T05:48:28;14.60;;;6.05;;
41861;SDS011;27537;57.134;-2.136;2023-04-06T05:50:54;16.05;;;7.40;;
41861;SDS011;27537;57.134;-2.136;2023-04-06T05:53:21;13.75;;;5.65;;
41861;SDS011;27537;57.134;-2.136;2023-04-06T05:55:48;12.60;;;4.82;;
41861;SDS011;27537;57.134;-2.136;2023-04-06T05:58:15;13.20;;;4.82;;
41861;SDS011;27537;57.134;-2.136;2023-04-06T06:00:43;11.48;;;5.00;;
41861;SDS011;27537;57.134;-2.136;2023-04-06T06:03:12;11.60;;;5.40;;
41861;SDS011;27537;57.134;-2.136;2023-04-06T06:05:39;12.80;;;5.82;;
41861;SDS011;27537;57.134;-2.136;2023-04-06T06:08:06;9.13;;;3.88;;
41861;SDS011;27537;57.134;-2.136;2023-04-06T06:10:32;10.32;;;3.72;;
41861;SDS011;27537;57.134;-2.136;2023-04-06T06:12:59;6.88;;;2.45;;
41861;SDS011;27537;57.134;-2.136;2023-04-06T06:15:26;7.55;;;2.65;;
41861;SDS011;27537;57.134;-2.136;2023-04-06T06:17:53;7.78;;;2.50;;
41861;SDS011;27537;57.134;-2.136;2023-04-06T06:20:19;8.98;;;1.77;;
41861;SDS011;27537;57.134;-2.136;2023-04-06T06:22:46;6.88;;;2.03;;
41861;SDS011;27537;57.134;-2.136;2023-04-06T06:25:13;6.75;;;1.90;;
41861;SDS011;27537;57.134;-2.136;2023-04-06T06:27:40;4.38;;;1.50;;
41861;SDS011;27537;57.134;-2.136;2023-04-06T06:30:06;2.92;;;1.38;;
41861;SDS011;27537;57.134;-2.136;2023-04-06T06:32:33;4.40;;;1.50;;
41861;SDS011;27537;57.134;-2.136;2023-04-06T06:35:00;5.55;;;1.50;;
41861;SDS011;27537;57.134;-2.136;2023-04-06T06:37:27;3.00;;;1.30;;
41861;SDS011;27537;57.134;-2.136;2023-04-06T06:39:56;3.58;;;1.30;;
41861;SDS011;27537;57.134;-2.136;2023-04-06T06:42:23;2.47;;;1.17;;
41861;SDS011;27537;57.134;-2.136;2023-04-06T06:44:50;2.45;;;1.20;;
41861;SDS011;27537;57.134;-2.136;2023-04-06T06:47:17;4.15;;;1.70;;
41861;SDS011;27537;57.134;-2.136;2023-04-06T06:49:44;4.03;;;1.30;;
41861;SDS011;27537;57.134;-2.136;2023-04-06T06:52:11;4.45;;;1.52;;
41861;SDS011;27537;57.134;-2.136;2023-04-06T06:54:37;5.50;;;1.67;;
41861;SDS011;27537;57.134;-2.136;2023-04-06T06:57:04;4.60;;;1.20;;
41861;SDS011;27537;57.134;-2.136;2023-04-06T06:59:31;4.72;;;1.20;;
41861;SDS011;27537;57.134;-2.136;2023-04-06T07:01:58;5.50;;;1.30;;
41861;SDS011;27537;57.134;-2.136;2023-04-06T07:04:25;3.97;;;1.20;;
41861;SDS011;27537;57.134;-2.136;2023-04-06T07:06:52;4.57;;;1.33;;
41861;SDS011;27537;57.134;-2.136;2023-04-06T07:09:19;2.10;;;1.30;;
41861;SDS011;27537;57.134;-2.136;2023-04-06T07:11:45;4.55;;;1.60;;
41861;SDS011;27537;57.134;-2.136;2023-04-06T07:14:12;5.22;;;1.70;;
41861;SDS011;27537;57.134;-2.136;2023-04-06T07:16:39;4.70;;;1.48;;
41861;SDS011;27537;57.134;-2.136;2023-04-06T07:19:07;3.83;;;1.20;;
41861;SDS011;27537;57.134;-2.136;2023-04-06T07:21:35;7.25;;;1.33;;
41861;SDS011;27537;57.134;-2.136;2023-04-06T07:24:03;5.32;;;1.48;;
41861;SDS011;27537;57.134;-2.136;2023-04-06T07:26:29;2.65;;;1.10;;
41861;SDS011;27537;57.134;-2.136;2023-04-06T07:28:56;4.95;;;1.38;;
41861;SDS011;27537;57.134;-2.136;2023-04-06T07:31:23;3.88;;;1.40;;
41861;SDS011;27537;57.134;-2.136;2023-04-06T07:33:50;4.72;;;1.40;;
41861;SDS011;27537;57.134;-2.136;2023-04-06T07:36:16;4.97;;;1.25;;
41861;SDS011;27537;57.134;-2.136;2023-04-06T07:38:44;3.17;;;1.10;;
41861;SDS011;27537;57.134;-2.136;2023-04-06T07:41:12;2.00;;;1.00;;
41861;SDS011;27537;57.134;-2.136;2023-04-06T07:43:39;3.22;;;1.10;;
41861;SDS011;27537;57.134;-2.136;2023-04-06T07:46:05;2.95;;;1.10;;
41861;SDS011;27537;57.134;-2.136;2023-04-06T07:48:32;2.78;;;1.38;;
41861;SDS011;27537;57.134;-2.136;2023-04-06T07:51:02;3.70;;;1.05;;
41861;SDS011;27537;57.134;-2.136;2023-04-06T07:53:30;3.13;;;1.27;;
41861;SDS011;27537;57.134;-2.136;2023-04-06T07:56:00;3.33;;;1.13;;
41861;SDS011;27537;57.134;-2.136;2023-04-06T07:58:27;3.45;;;1.30;;
41861;SDS011;27537;57.134;-2.136;2023-04-06T08:00:53;3.17;;;1.20;;
41861;SDS011;27537;57.134;-2.136;2023-04-06T08:03:21;8.15;;;1.20;;
41861;SDS011;27537;57.134;-2.136;2023-04-06T08:05:52;2.58;;;1.27;;
41861;SDS011;27537;57.134;-2.136;2023-04-06T08:08:19;2.60;;;1.08;;
41861;SDS011;27537;57.134;-2.136;2023-04-06T08:10:48;5.95;;;1.20;;
41861;SDS011;27537;57.134;-2.136;2023-04-06T08:13:15;7.13;;;1.45;;
41861;SDS011;27537;57.134;-2.136;2023-04-06T08:15:42;5.35;;;1.38;;
41861;SDS011;27537;57.134;-2.136;2023-04-06T08:18:09;4.93;;;1.42;;
41861;SDS011;27537;57.134;-2.136;2023-04-06T08:20:36;5.72;;;1.60;;
41861;SDS011;27537;57.134;-2.136;2023-04-06T08:23:03;8.30;;;1.90;;
41861;SDS011;27537;57.134;-2.136;2023-04-06T08:25:30;4.78;;;1.13;;
41861;SDS011;27537;57.134;-2.136;2023-04-06T08:27:56;6.30;;;1.40;;
41861;SDS011;27537;57.134;-2.136;2023-04-06T08:30:23;7.47;;;1.63;;
41861;SDS011;27537;57.134;-2.136;2023-04-06T08:32:50;3.25;;;1.17;;
41861;SDS011;27537;57.134;-2.136;2023-04-06T08:35:17;4.03;;;1.20;;
41861;SDS011;27537;57.134;-2.136;2023-04-06T08:37:44;5.10;;;1.42;;
41861;SDS011;27537;57.134;-2.136;2023-04-06T08:40:11;3.90;;;1.25;;
41861;SDS011;27537;57.134;-2.136;2023-04-06T08:42:39;6.13;;;1.50;;
41861;SDS011;27537;57.134;-2.136;2023-04-06T08:45:10;4.53;;;1.25;;
41861;SDS011;27537;57.134;-2.136;2023-04-06T08:47:37;2.55;;;1.17;;
41861;SDS011;27537;57.134;-2.136;2023-04-06T08:50:04;5.47;;;1.40;;
41861;SDS011;27537;57.134;-2.136;2023-04-06T08:52:31;5.55;;;1.60;;
41861;SDS011;27537;57.134;-2.136;2023-04-06T08:55:00;3.60;;;1.40;;
41861;SDS011;27537;57.134;-2.136;2023-04-06T08:57:27;6.68;;;1.27;;
41861;SDS011;27537;57.134;-2.136;2023-04-06T08:59:55;2.97;;;1.20;;
41861;SDS011;27537;57.134;-2.136;2023-04-06T09:02:23;4.78;;;1.45;;
41861;SDS011;27537;57.134;-2.136;2023-04-06T09:04:52;6.85;;;1.48;;
41861;SDS011;27537;57.134;-2.136;2023-04-06T09:07:20;2.75;;;1.10;;
41861;SDS011;27537;57.134;-2.136;2023-04-06T09:09:47;4.18;;;1.30;;
41861;SDS011;27537;57.134;-2.136;2023-04-06T09:12:27;5.90;;;1.80;;
41861;SDS011;27537;57.134;-2.136;2023-04-06T09:14:55;4.97;;;1.27;;
41861;SDS011;27537;57.134;-2.136;2023-04-06T09:17:24;2.75;;;1.10;;
41861;SDS011;27537;57.134;-2.136;2023-04-06T09:19:52;2.80;;;1.10;;
41861;SDS011;27537;57.134;-2.136;2023-04-06T09:22:19;5.03;;;1.40;;
41861;SDS011;27537;57.134;-2.136;2023-04-06T09:27:14;6.05;;;1.40;;
41861;SDS011;27537;57.134;-2.136;2023-04-06T09:29:43;5.18;;;1.48;;
41861;SDS011;27537;57.134;-2.136;2023-04-06T09:32:11;4.20;;;1.38;;
41861;SDS011;27537;57.134;-2.136;2023-04-06T09:34:38;3.63;;;1.20;;
41861;SDS011;27537;57.134;-2.136;2023-04-06T09:37:18;4.50;;;1.23;;
41861;SDS011;27537;57.134;-2.136;2023-04-06T09:39:45;5.28;;;1.20;;
41861;SDS011;27537;57.134;-2.136;2023-04-06T09:42:25;4.60;;;1.40;;
41861;SDS011;27537;57.134;-2.136;2023-04-06T09:44:52;3.38;;;1.00;;
41861;SDS011;27537;57.134;-2.136;2023-04-06T09:47:18;5.45;;;1.48;;
41861;SDS011;27537;57.134;-2.136;2023-04-06T09:49:47;6.00;;;1.35;;
41861;SDS011;27537;57.134;-2.136;2023-04-06T09:52:16;2.95;;;1.25;;
41861;SDS011;27537;57.134;-2.136;2023-04-06T09:54:44;5.47;;;1.40;;
41861;SDS011;27537;57.134;-2.136;2023-04-06T09:57:25;4.40;;;1.30;;
41861;SDS011;27537;57.134;-2.136;2023-04-06T10:08:12;4.97;;;1.58;;
41861;SDS011;27537;57.134;-2.136;2023-04-06T10:10:40;2.17;;;1.08;;
41861;SDS011;27537;57.134;-2.136;2023-04-06T10:13:10;8.18;;;1.60;;
41861;SDS011;27537;57.134;-2.136;2023-04-06T10:15:38;6.32;;;1.40;;
41861;SDS011;27537;57.134;-2.136;2023-04-06T10:18:06;9.00;;;1.30;;
41861;SDS011;27537;57.134;-2.136;2023-04-06T10:20:39;11.38;;;1.60;;
41861;SDS011;27537;57.134;-2.136;2023-04-06T10:25:58;4.80;;;1.30;;
41861;SDS011;27537;57.134;-2.136;2023-04-06T10:28:30;6.60;;;1.45;;
41861;SDS011;27537;57.134;-2.136;2023-04-06T10:30:59;5.97;;;1.50;;
41861;SDS011;27537;57.134;-2.136;2023-04-06T10:33:28;5.05;;;1.42;;
41861;SDS011;27537;57.134;-2.136;2023-04-06T10:35:55;7.95;;;1.95;;
41861;SDS011;27537;57.134;-2.136;2023-04-06T10:38:43;12.65;;;2.05;;
41861;SDS011;27537;57.134;-2.136;2023-04-06T10:41:12;3.95;;;1.60;;
41861;SDS011;27537;57.134;-2.136;2023-04-06T10:43:40;7.35;;;1.50;;
41861;SDS011;27537;57.134;-2.136;2023-04-06T10:46:08;11.10;;;2.13;;
41861;SDS011;27537;57.134;-2.136;2023-04-06T10:48:43;5.22;;;1.73;;
41861;SDS011;27537;57.134;-2.136;2023-04-06T10:51:13;5.88;;;1.50;;
41861;SDS011;27537;57.134;-2.136;2023-04-06T10:53:41;5.97;;;1.48;;
41861;SDS011;27537;57.134;-2.136;2023-04-06T10:56:10;7.25;;;1.88;;
41861;SDS011;27537;57.134;-2.136;2023-04-06T10:58:38;7.38;;;1.50;;
41861;SDS011;27537;57.134;-2.136;2023-04-06T11:01:05;9.93;;;1.50;;
41861;SDS011;27537;57.134;-2.136;2023-04-06T11:03:36;7.07;;;1.60;;
41861;SDS011;27537;57.134;-2.136;2023-04-06T11:06:09;8.40;;;1.50;;
41861;SDS011;27537;57.134;-2.136;2023-04-06T11:08:36;9.20;;;1.63;;
41861;SDS011;27537;57.134;-2.136;2023-04-06T11:13:44;6.47;;;1.73;;
41861;SDS011;27537;57.134;-2.136;2023-04-06T11:16:18;12.57;;;1.65;;
41861;SDS011;27537;57.134;-2.136;2023-04-06T11:18:53;7.60;;;1.30;;
41861;SDS011;27537;57.134;-2.136;2023-04-06T11:21:35;6.13;;;1.70;;
41861;SDS011;27537;57.134;-2.136;2023-04-06T11:26:52;8.70;;;1.60;;
41861;SDS011;27537;57.134;-2.136;2023-04-06T11:29:22;6.65;;;1.55;;
41861;SDS011;27537;57.134;-2.136;2023-04-06T11:31:51;6.03;;;1.50;;
41861;SDS011;27537;57.134;-2.136;2023-04-06T11:34:23;3.78;;;1.33;;
41861;SDS011;27537;57.134;-2.136;2023-04-06T11:36:55;5.38;;;1.60;;
41861;SDS011;27537;57.134;-2.136;2023-04-06T11:39:27;5.80;;;1.60;;
41861;SDS011;27537;57.134;-2.136;2023-04-06T11:41:58;8.13;;;1.70;;
41861;SDS011;27537;57.134;-2.136;2023-04-06T11:47:08;8.20;;;2.05;;
41861;SDS011;27537;57.134;-2.136;2023-04-06T11:49:36;9.13;;;1.70;;
41861;SDS011;27537;57.134;-2.136;2023-04-06T11:52:13;7.18;;;1.70;;
41861;SDS011;27537;57.134;-2.136;2023-04-06T11:54:44;6.75;;;1.90;;
41861;SDS011;27537;57.134;-2.136;2023-04-06T11:57:11;7.70;;;1.80;;
41861;SDS011;27537;57.134;-2.136;2023-04-06T11:59:38;6.22;;;1.40;;
41861;SDS011;27537;57.134;-2.136;2023-04-06T12:02:05;5.47;;;1.83;;
41861;SDS011;27537;57.134;-2.136;2023-04-06T12:04:32;7.07;;;1.70;;
41861;SDS011;27537;57.134;-2.136;2023-04-06T12:06:59;8.07;;;1.90;;
41861;SDS011;27537;57.134;-2.136;2023-04-06T12:09:26;5.80;;;1.60;;
41861;SDS011;27537;57.134;-2.136;2023-04-06T12:11:52;9.35;;;2.00;;
41861;SDS011;27537;57.134;-2.136;2023-04-06T12:14:20;7.85;;;1.90;;
41861;SDS011;27537;57.134;-2.136;2023-04-06T12:16:47;8.48;;;1.88;;
41861;SDS011;27537;57.134;-2.136;2023-04-06T12:19:13;6.93;;;1.67;;
41861;SDS011;27537;57.134;-2.136;2023-04-06T12:21:40;4.78;;;1.33;;
41861;SDS011;27537;57.134;-2.136;2023-04-06T12:24:08;8.52;;;1.80;;
41861;SDS011;27537;57.134;-2.136;2023-04-06T12:26:35;3.90;;;1.45;;
41861;SDS011;27537;57.134;-2.136;2023-04-06T12:29:03;7.70;;;1.85;;
41861;SDS011;27537;57.134;-2.136;2023-04-06T12:31:36;5.70;;;1.50;;
41861;SDS011;27537;57.134;-2.136;2023-04-06T12:34:05;6.03;;;1.80;;
41861;SDS011;27537;57.134;-2.136;2023-04-06T12:36:32;6.25;;;2.08;;
41861;SDS011;27537;57.134;-2.136;2023-04-06T12:39:00;10.25;;;2.28;;
41861;SDS011;27537;57.134;-2.136;2023-04-06T12:41:27;8.27;;;1.88;;
41861;SDS011;27537;57.134;-2.136;2023-04-06T12:43:55;7.10;;;2.15;;
41861;SDS011;27537;57.134;-2.136;2023-04-06T12:46:22;9.38;;;2.28;;
41861;SDS011;27537;57.134;-2.136;2023-04-06T12:48:50;7.30;;;1.50;;
41861;SDS011;27537;57.134;-2.136;2023-04-06T12:51:20;4.60;;;1.55;;
41861;SDS011;27537;57.134;-2.136;2023-04-06T12:53:46;7.63;;;1.90;;
41861;SDS011;27537;57.134;-2.136;2023-04-06T12:56:17;8.85;;;2.10;;
41861;SDS011;27537;57.134;-2.136;2023-04-06T12:58:44;8.13;;;2.25;;
41861;SDS011;27537;57.134;-2.136;2023-04-06T13:01:11;8.82;;;1.77;;
41861;SDS011;27537;57.134;-2.136;2023-04-06T13:03:40;5.93;;;1.83;;
41861;SDS011;27537;57.134;-2.136;2023-04-06T13:06:07;7.53;;;1.70;;
41861;SDS011;27537;57.134;-2.136;2023-04-06T13:08:35;10.05;;;2.50;;
41861;SDS011;27537;57.134;-2.136;2023-04-06T13:11:06;14.95;;;4.68;;
41861;SDS011;27537;57.134;-2.136;2023-04-06T13:13:35;7.50;;;2.00;;
41861;SDS011;27537;57.134;-2.136;2023-04-06T13:16:03;7.55;;;1.80;;
41861;SDS011;27537;57.134;-2.136;2023-04-06T13:18:32;8.70;;;2.08;;
41861;SDS011;27537;57.134;-2.136;2023-04-06T13:20:59;8.75;;;2.13;;
41861;SDS011;27537;57.134;-2.136;2023-04-06T13:23:26;8.85;;;2.22;;
41861;SDS011;27537;57.134;-2.136;2023-04-06T13:26:06;8.68;;;1.90;;
41861;SDS011;27537;57.134;-2.136;2023-04-06T13:28:34;8.40;;;1.73;;
41861;SDS011;27537;57.134;-2.136;2023-04-06T13:31:03;8.82;;;1.65;;
41861;SDS011;27537;57.134;-2.136;2023-04-06T13:33:30;9.90;;;2.13;;
41861;SDS011;27537;57.134;-2.136;2023-04-06T13:35:57;5.10;;;1.50;;
41861;SDS011;27537;57.134;-2.136;2023-04-06T13:38:25;8.75;;;1.67;;
41861;SDS011;27537;57.134;-2.136;2023-04-06T13:40:53;7.35;;;1.48;;
41861;SDS011;27537;57.134;-2.136;2023-04-06T13:43:21;6.80;;;1.77;;
41861;SDS011;27537;57.134;-2.136;2023-04-06T13:45:51;5.70;;;1.60;;
41861;SDS011;27537;57.134;-2.136;2023-04-06T13:48:21;7.38;;;1.70;;
41861;SDS011;27537;57.134;-2.136;2023-04-06T13:50:48;4.47;;;1.35;;
41861;SDS011;27537;57.134;-2.136;2023-04-06T13:53:15;7.15;;;1.33;;
41861;SDS011;27537;57.134;-2.136;2023-04-06T13:55:41;6.30;;;1.50;;
41861;SDS011;27537;57.134;-2.136;2023-04-06T13:58:18;7.82;;;1.83;;
41861;SDS011;27537;57.134;-2.136;2023-04-06T14:00:44;4.82;;;1.45;;
41861;SDS011;27537;57.134;-2.136;2023-04-06T14:03:11;3.85;;;1.40;;
41861;SDS011;27537;57.134;-2.136;2023-04-06T14:05:38;7.07;;;1.70;;
41861;SDS011;27537;57.134;-2.136;2023-04-06T14:08:05;6.00;;;1.40;;
41861;SDS011;27537;57.134;-2.136;2023-04-06T14:10:36;5.57;;;1.60;;
41861;SDS011;27537;57.134;-2.136;2023-04-06T14:13:03;5.57;;;1.40;;
41861;SDS011;27537;57.134;-2.136;2023-04-06T14:15:30;4.43;;;1.20;;
41861;SDS011;27537;57.134;-2.136;2023-04-06T14:17:57;4.85;;;1.48;;
41861;SDS011;27537;57.134;-2.136;2023-04-06T14:20:23;5.47;;;1.58;;
41861;SDS011;27537;57.134;-2.136;2023-04-06T14:22:50;6.22;;;1.42;;
41861;SDS011;27537;57.134;-2.136;2023-04-06T14:25:18;2.53;;;1.10;;
41861;SDS011;27537;57.134;-2.136;2023-04-06T14:27:46;3.95;;;1.05;;
41861;SDS011;27537;57.134;-2.136;2023-04-06T14:30:13;4.35;;;1.00;;
41861;SDS011;27537;57.134;-2.136;2023-04-06T14:32:40;2.58;;;0.90;;
41861;SDS011;27537;57.134;-2.136;2023-04-06T14:35:07;1.40;;;0.90;;
41861;SDS011;27537;57.134;-2.136;2023-04-06T14:37:34;2.28;;;0.90;;
41861;SDS011;27537;57.134;-2.136;2023-04-06T14:40:01;2.08;;;0.85;;
41861;SDS011;27537;57.134;-2.136;2023-04-06T14:42:28;1.73;;;0.98;;
41861;SDS011;27537;57.134;-2.136;2023-04-06T14:44:56;1.55;;;0.85;;
41861;SDS011;27537;57.134;-2.136;2023-04-06T14:47:22;4.03;;;0.80;;
41861;SDS011;27537;57.134;-2.136;2023-04-06T14:49:50;2.03;;;0.80;;
41861;SDS011;27537;57.134;-2.136;2023-04-06T14:52:18;4.30;;;1.02;;